createdAt,value
2018-12-08T00:00:40.696Z,-5.5
2018-12-08T00:01:31.037Z,-5.5
2018-12-08T00:02:20.819Z,-5.5
2018-12-08T00:03:10.878Z,-5.6
2018-12-08T00:04:01.201Z,-5.6
2018-12-08T00:04:50.973Z,-5.6
2018-12-08T00:05:41.043Z,-5.6
2018-12-08T00:06:31.376Z,-5.6
2018-12-08T00:24:43.867Z,-5.6
2018-12-08T00:25:33.611Z,-5.6
2018-12-08T00:26:23.973Z,-5.6
2018-12-08T00:27:13.444Z,-5.7
2018-12-08T00:28:03.277Z,-5.7
2018-12-08T00:28:53.834Z,-5.7
2018-12-08T00:29:43.869Z,-5.7
2018-12-08T00:30:33.669Z,-5.8
2018-12-08T00:31:24.249Z,-5.8
2018-12-08T00:32:14.059Z,-5.7
2018-12-08T00:33:03.838Z,-5.8
2018-12-08T00:33:54.172Z,-5.8
2018-12-08T00:34:44.289Z,-5.8
2018-12-08T00:35:34.298Z,-5.8
2018-12-08T00:36:23.796Z,-5.8
2018-12-08T00:37:14.114Z,-5.8
2018-12-08T00:38:03.916Z,-5.8
2018-12-08T00:38:54.236Z,-5.8
2018-12-08T00:39:44.824Z,-5.8
2018-12-08T00:40:34.873Z,-5.8
2018-12-08T00:41:24.936Z,-5.8
2018-12-08T00:42:14.192Z,-5.8
2018-12-08T00:43:04.576Z,-5.8
2018-12-08T00:43:54.860Z,-5.8
2018-12-08T00:44:44.373Z,-5.8
2018-12-08T00:45:34.974Z,-5.8
2018-12-08T00:46:24.868Z,-5.8
2018-12-08T00:47:14.808Z,-5.9
2018-12-08T00:48:04.865Z,-5.9
2018-12-08T00:48:55.193Z,-5.9
2018-12-08T00:49:45.258Z,-5.9
2018-12-08T00:50:35.047Z,-5.9
2018-12-08T00:51:25.377Z,-5.9
2018-12-08T00:52:15.143Z,-5.9
2018-12-08T00:53:04.665Z,-5.9
2018-12-08T00:53:55.553Z,-5.9
2018-12-08T00:54:45.327Z,-5.9
2018-12-08T00:55:35.660Z,-6
2018-12-08T00:56:25.720Z,-6
2018-12-08T00:57:15.770Z,-6
2018-12-08T00:58:05.839Z,-6
2018-12-08T00:58:55.610Z,-6
2018-12-08T00:59:45.927Z,-6.1
2018-12-08T01:00:35.977Z,-6.1
2018-12-08T01:01:25.791Z,-6.1
2018-12-08T01:02:16.128Z,-6.1
2018-12-08T01:03:06.188Z,-6.1
2018-12-08T01:03:55.969Z,-6.1
2018-12-08T01:04:46.342Z,-6.1
2018-12-08T01:05:36.069Z,-6.1
2018-12-08T01:06:25.854Z,-6.1
2018-12-08T01:07:15.931Z,-6.1
2018-12-08T01:08:06.539Z,-6.2
2018-12-08T01:08:56.299Z,-6.2
2018-12-08T01:09:46.886Z,-6.3
2018-12-08T01:10:37.000Z,-6.3
2018-12-08T01:11:26.479Z,-6.3
2018-12-08T01:12:16.781Z,-6.3
2018-12-08T01:13:06.863Z,-6.3
2018-12-08T01:13:56.933Z,-6.3
2018-12-08T01:14:46.976Z,-6.3
2018-12-08T01:15:37.036Z,-6.3
2018-12-08T01:16:27.118Z,-6.3
2018-12-08T01:17:17.153Z,-6.3
2018-12-08T01:18:06.931Z,-6.3
2018-12-08T01:18:57.254Z,-6.3
2018-12-08T01:19:47.326Z,-6.4
2018-12-08T01:20:37.103Z,-6.3
2018-12-08T01:21:27.176Z,-6.3
2018-12-08T01:22:17.584Z,-6.3
2018-12-08T01:23:07.549Z,-6.3
2018-12-08T01:23:57.621Z,-6.3
2018-12-08T01:24:47.413Z,-6.3
2018-12-08T01:25:37.733Z,-6.3
2018-12-08T01:26:27.793Z,-6.3
2018-12-08T01:27:17.562Z,-6.3
2018-12-08T01:28:07.625Z,-6.4
2018-12-08T01:28:57.963Z,-6.4
2018-12-08T01:29:47.738Z,-6.4
2018-12-08T01:30:38.070Z,-6.4
2018-12-08T01:31:27.694Z,-6.4
2018-12-08T01:32:17.640Z,-6.4
2018-12-08T01:33:08.250Z,-6.4
2018-12-08T01:33:58.027Z,-6.4
2018-12-08T01:34:48.082Z,-6.4
2018-12-08T01:35:38.419Z,-6.4
2018-12-08T01:36:28.473Z,-6.4
2018-12-08T01:37:17.972Z,-6.4
2018-12-08T01:38:08.306Z,-6.5
2018-12-08T01:38:58.634Z,-6.5
2018-12-08T01:39:48.411Z,-6.5
2018-12-08T01:40:38.463Z,-6.4
2018-12-08T01:41:28.588Z,-6.4
2018-12-08T01:42:18.590Z,-6.4
2018-12-08T01:43:08.641Z,-6.4
2018-12-08T01:43:58.978Z,-6.4
2018-12-08T01:44:49.012Z,-6.5
2018-12-08T01:45:38.840Z,-6.6
2018-12-08T01:46:28.884Z,-6.6
2018-12-08T01:47:18.654Z,-6.5
2018-12-08T01:48:08.720Z,-6.6
2018-12-08T01:48:59.343Z,-6.6
2018-12-08T01:49:49.355Z,-6.6
2018-12-08T01:50:38.878Z,-6.6
2018-12-08T01:51:29.499Z,-6.6
2018-12-08T01:52:19.266Z,-6.6
2018-12-08T01:53:09.597Z,-6.6
2018-12-08T01:53:59.655Z,-6.6
2018-12-08T01:54:49.817Z,-6.6
2018-12-08T01:55:39.498Z,-6.6
2018-12-08T01:56:29.286Z,-6.6
2018-12-08T01:57:19.896Z,-6.6
2018-12-08T01:58:09.670Z,-6.6
2018-12-08T01:58:59.739Z,-6.6
2018-12-08T01:59:50.038Z,-6.6
2018-12-08T02:00:40.121Z,-6.6
2018-12-08T02:01:29.676Z,-6.6
2018-12-08T02:02:20.239Z,-6.7
2018-12-08T02:03:10.293Z,-6.7
2018-12-08T02:04:00.094Z,-6.7
2018-12-08T02:04:50.417Z,-6.6
2018-12-08T02:05:39.916Z,-6.7
2018-12-08T02:06:30.559Z,-6.7
2018-12-08T02:07:20.014Z,-6.8
2018-12-08T02:08:09.819Z,-6.7
2018-12-08T02:09:00.721Z,-6.7
2018-12-08T02:09:50.739Z,-6.7
2018-12-08T02:10:40.521Z,-6.8
2018-12-08T02:11:30.863Z,-6.8
2018-12-08T02:12:20.893Z,-6.8
2018-12-08T02:13:10.698Z,-6.8
2018-12-08T02:14:01.013Z,-6.8
2018-12-08T02:14:51.103Z,-6.8
2018-12-08T02:15:40.589Z,-6.8
2018-12-08T02:16:31.208Z,-6.8
2018-12-08T02:17:21.515Z,-6.8
2018-12-08T02:18:11.048Z,-6.9
2018-12-08T02:19:01.107Z,-6.9
2018-12-08T02:19:50.437Z,-6.9
2018-12-08T02:20:41.492Z,-6.9
2018-12-08T02:21:30.995Z,-6.9
2018-12-08T02:22:21.429Z,-6.9
2018-12-08T02:23:11.109Z,-6.9
2018-12-08T02:24:01.507Z,-6.9
2018-12-08T02:24:51.612Z,-6.8
2018-12-08T02:25:41.837Z,-6.9
2018-12-08T02:26:31.890Z,-6.9
2018-12-08T02:27:21.396Z,-6.9
2018-12-08T02:28:11.724Z,-6.9
2018-12-08T02:29:01.790Z,-6.9
2018-12-08T02:29:51.836Z,-6.9
2018-12-08T02:30:42.197Z,-6.9
2018-12-08T02:31:32.254Z,-6.9
2018-12-08T02:32:22.026Z,-6.9
2018-12-08T02:33:14.804Z,-6.9
2018-12-08T02:34:02.174Z,-7
2018-12-08T02:34:52.519Z,-7
2018-12-08T02:35:42.543Z,-7
2018-12-08T02:36:32.324Z,-7
2018-12-08T02:37:22.403Z,-7
2018-12-08T02:38:11.936Z,-7
2018-12-08T02:39:02.799Z,-7
2018-12-08T02:39:52.811Z,-7
2018-12-08T02:40:42.858Z,-7
2018-12-08T02:41:32.666Z,-7
2018-12-08T02:42:23.004Z,-7
2018-12-08T02:43:13.618Z,-7
2018-12-08T02:44:03.123Z,-7
2018-12-08T02:44:53.170Z,-7
2018-12-08T02:45:43.198Z,-7.1
2018-12-08T02:46:32.819Z,-7.1
2018-12-08T02:47:23.055Z,-7.1
2018-12-08T02:48:13.387Z,-7.1
2018-12-08T02:49:03.157Z,-7.1
2018-12-08T02:49:53.219Z,-7.1
2018-12-08T02:50:43.281Z,-7.1
2018-12-08T02:51:33.864Z,-7.1
2018-12-08T02:52:23.405Z,-7.1
2018-12-08T02:53:13.503Z,-7.1
2018-12-08T02:54:03.757Z,-7.1
2018-12-08T02:54:53.847Z,-7.1
2018-12-08T02:55:43.889Z,-7.1
2018-12-08T02:56:34.156Z,-7.1
2018-12-08T02:57:23.749Z,-7.1
2018-12-08T02:58:13.799Z,-7.1
2018-12-08T02:59:03.305Z,-7.1
2018-12-08T02:59:54.283Z,-7.1
2018-12-08T03:00:43.956Z,-7.1
2018-12-08T03:01:34.311Z,-7.1
2018-12-08T03:02:23.813Z,-7.2
2018-12-08T03:03:13.864Z,-7.1
2018-12-08T03:04:04.732Z,-7.1
2018-12-08T03:04:54.563Z,-7.1
2018-12-08T03:05:44.318Z,-7.1
2018-12-08T03:06:34.370Z,-7.2
2018-12-08T03:07:24.427Z,-7.2
2018-12-08T03:08:14.472Z,-7.2
2018-12-08T03:09:04.826Z,-7.2
2018-12-08T03:09:54.870Z,-7.2
2018-12-08T03:10:44.954Z,-7.2
2018-12-08T03:11:34.970Z,-7.2
2018-12-08T03:12:24.487Z,-7.3
2018-12-08T03:13:15.111Z,-7.2
2018-12-08T03:14:05.197Z,-7.3
2018-12-08T03:14:54.962Z,-7.3
2018-12-08T03:15:44.724Z,-7.3
2018-12-08T03:16:35.052Z,-7.3
2018-12-08T03:17:25.374Z,-7.3
2018-12-08T03:18:15.168Z,-7.3
2018-12-08T03:19:05.473Z,-7.3
2018-12-08T03:19:55.810Z,-7.3
2018-12-08T03:20:45.334Z,-7.3
2018-12-08T03:21:35.687Z,-7.3
2018-12-08T03:22:25.981Z,-7.3
2018-12-08T03:23:15.930Z,-7.3
2018-12-08T03:24:05.834Z,-7.2
2018-12-08T03:24:55.916Z,-7.2
2018-12-08T03:25:45.966Z,-7.2
2018-12-08T03:26:36.019Z,-7.2
2018-12-08T03:27:26.080Z,-7.2
2018-12-08T03:28:16.126Z,-7.2
2018-12-08T03:29:05.925Z,-7.3
2018-12-08T03:29:55.963Z,-7.2
2018-12-08T03:30:47.978Z,-7.3
2018-12-08T03:31:36.404Z,-7.2
2018-12-08T03:32:25.922Z,-7.2
2018-12-08T03:33:15.925Z,-7.3
2018-12-08T03:34:06.551Z,-7.3
2018-12-08T03:34:56.030Z,-7.3
2018-12-08T03:35:46.385Z,-7.3
2018-12-08T03:36:36.408Z,-7.3
2018-12-08T03:37:26.208Z,-7.3
2018-12-08T03:38:16.530Z,-7.3
2018-12-08T03:39:06.885Z,-7.3
2018-12-08T03:39:56.640Z,-7.3
2018-12-08T03:40:47.025Z,-7.3
2018-12-08T03:41:36.780Z,-7.3
2018-12-08T03:42:26.548Z,-7.3
2018-12-08T03:43:16.322Z,-7.3
2018-12-08T03:44:07.212Z,-7.3
2018-12-08T03:44:57.006Z,-7.3
2018-12-08T03:45:47.329Z,-7.3
2018-12-08T03:46:37.110Z,-7.3
2018-12-08T03:47:26.912Z,-7.3
2018-12-08T03:48:17.231Z,-7.3
2018-12-08T03:49:07.324Z,-7.3
2018-12-08T03:49:57.096Z,-7.3
2018-12-08T03:50:47.664Z,-7.4
2018-12-08T03:51:37.716Z,-7.4
2018-12-08T03:52:27.869Z,-7.4
2018-12-08T03:53:17.572Z,-7.4
2018-12-08T03:54:07.917Z,-7.3
2018-12-08T03:54:57.687Z,-7.3
2018-12-08T03:55:47.745Z,-7.3
2018-12-08T03:56:38.118Z,-7.3
2018-12-08T03:57:28.129Z,-7.3
2018-12-08T03:58:17.915Z,-7.3
2018-12-08T03:59:08.236Z,-7.3
2018-12-08T03:59:58.011Z,-7.4
2018-12-08T04:00:47.923Z,-7.4
2018-12-08T04:01:38.418Z,-7.4
2018-12-08T04:02:28.201Z,-7.4
2018-12-08T04:03:17.966Z,-7.4
2018-12-08T04:04:08.586Z,-7.4
2018-12-08T04:04:58.108Z,-7.4
2018-12-08T04:05:48.475Z,-7.4
2018-12-08T04:06:38.203Z,-7.4
2018-12-08T04:07:28.818Z,-7.4
2018-12-08T04:08:18.315Z,-7.4
2018-12-08T04:09:08.933Z,-7.4
2018-12-08T04:09:58.729Z,-7.4
2018-12-08T04:10:49.216Z,-7.4
2018-12-08T04:11:39.098Z,-7.4
2018-12-08T04:12:28.602Z,-7.4
2018-12-08T04:13:18.665Z,-7.4
2018-12-08T04:14:08.760Z,-7.4
2018-12-08T04:14:59.321Z,-7.4
2018-12-08T04:15:49.368Z,-7.4
2018-12-08T04:16:39.443Z,-7.4
2018-12-08T04:17:29.500Z,-7.4
2018-12-08T04:18:19.557Z,-7.4
2018-12-08T04:19:09.067Z,-7.4
2018-12-08T04:19:59.402Z,-7.4
2018-12-08T04:20:49.740Z,-7.4
2018-12-08T04:21:39.512Z,-7.4
2018-12-08T04:22:29.837Z,-7.4
2018-12-08T04:23:19.699Z,-7.4
2018-12-08T04:24:09.964Z,-7.4
2018-12-08T04:24:59.468Z,-7.4
2018-12-08T04:25:50.907Z,-7.4
2018-12-08T04:26:39.570Z,-7.4
2018-12-08T04:27:29.616Z,-7.4
2018-12-08T04:28:19.716Z,-7.4
2018-12-08T04:29:10.014Z,-7.4
2018-12-08T04:30:00.079Z,-7.3
2018-12-08T04:30:50.830Z,-7.3
2018-12-08T04:31:40.456Z,-7.3
2018-12-08T04:32:30.526Z,-7.3
2018-12-08T04:33:20.312Z,-7.3
2018-12-08T04:34:10.358Z,-7.3
2018-12-08T04:35:00.424Z,-7.3
2018-12-08T04:35:50.201Z,-7.4
2018-12-08T04:36:40.258Z,-7.3
2018-12-08T04:53:59.379Z,-7.2
2018-12-08T04:54:49.488Z,-7.2
2018-12-08T04:55:38.977Z,-7.3
2018-12-08T04:56:29.296Z,-7.3
2018-12-08T04:57:19.069Z,-7.3
2018-12-08T04:58:09.394Z,-7.3
2018-12-08T04:58:59.494Z,-7.3
2018-12-08T04:59:49.535Z,-7.3
2018-12-08T05:00:39.581Z,-7.2
2018-12-08T05:01:29.376Z,-7.2
2018-12-08T05:02:19.779Z,-7.2
2018-12-08T05:03:09.191Z,-7.2
2018-12-08T05:03:59.306Z,-7.3
2018-12-08T05:04:49.852Z,-7.3
2018-12-08T05:05:39.619Z,-7.2
2018-12-08T05:06:29.401Z,-7.2
2018-12-08T05:07:20.266Z,-7.2
2018-12-08T05:08:10.064Z,-7.2
2018-12-08T05:08:59.817Z,-7.3
2018-12-08T05:09:50.188Z,-7.3
2018-12-08T05:10:39.971Z,-7.3
2018-12-08T05:11:30.113Z,-7.2
2018-12-08T05:12:20.346Z,-7.2
2018-12-08T05:13:10.128Z,-7.2
2018-12-08T05:14:00.467Z,-7.3
2018-12-08T05:14:50.538Z,-7.3
2018-12-08T05:15:40.339Z,-7.3
2018-12-08T05:16:30.638Z,-7.3
2018-12-08T05:17:20.413Z,-7.2
2018-12-08T05:18:10.751Z,-7.3
2018-12-08T05:19:00.533Z,-7.2
2018-12-08T05:19:50.865Z,-7.2
2018-12-08T05:20:40.970Z,-7.2
2018-12-08T05:21:30.698Z,-7.2
2018-12-08T05:22:21.036Z,-7.3
2018-12-08T05:23:11.088Z,-7.3
2018-12-08T05:24:00.870Z,-7.3
2018-12-08T05:24:50.943Z,-7.3
2018-12-08T05:25:40.995Z,-7.3
2018-12-08T05:26:31.378Z,-7.3
2018-12-08T05:27:21.108Z,-7.3
2018-12-08T05:28:10.890Z,-7.3
2018-12-08T05:29:00.950Z,-7.3
2018-12-08T05:29:51.353Z,-7.3
2018-12-08T05:30:41.605Z,-7.3
2018-12-08T05:31:31.660Z,-7.3
2018-12-08T05:32:21.454Z,-7.3
2018-12-08T05:33:11.500Z,-7.3
2018-12-08T05:34:01.843Z,-7.3
2018-12-08T05:34:51.665Z,-7.3
2018-12-08T05:35:41.672Z,-7.3
2018-12-08T05:36:32.338Z,-7.4
2018-12-08T05:37:22.070Z,-7.3
2018-12-08T05:38:11.835Z,-7.3
2018-12-08T05:39:02.175Z,-7.4
2018-12-08T05:39:52.057Z,-7.4
2018-12-08T05:40:42.594Z,-7.4
2018-12-08T05:41:32.367Z,-7.4
2018-12-08T05:42:22.755Z,-7.4
2018-12-08T05:43:12.497Z,-7.3
2018-12-08T05:44:02.530Z,-7.3
2018-12-08T05:44:52.572Z,-7.4
2018-12-08T05:45:42.069Z,-7.3
2018-12-08T05:46:32.680Z,-7.4
2018-12-08T05:47:22.742Z,-7.4
2018-12-08T05:48:12.250Z,-7.4
2018-12-08T05:49:02.390Z,-7.4
2018-12-08T05:49:52.639Z,-7.4
2018-12-08T05:50:42.969Z,-7.4
2018-12-08T05:51:32.815Z,-7.4
2018-12-08T05:52:23.117Z,-7.4
2018-12-08T05:53:13.142Z,-7.3
2018-12-08T05:54:02.924Z,-7.3
2018-12-08T05:54:53.265Z,-7.3
2018-12-08T05:55:43.318Z,-7.3
2018-12-08T05:56:33.079Z,-7.3
2018-12-08T05:57:23.244Z,-7.3
2018-12-08T05:58:13.206Z,-7.3
2018-12-08T05:59:02.997Z,-7.3
2018-12-08T05:59:53.034Z,-7.3
2018-12-08T06:00:43.369Z,-7.3
2018-12-08T06:01:33.711Z,-7.3
2018-12-08T06:02:23.764Z,-7.3
2018-12-08T06:03:13.546Z,-7.3
2018-12-08T06:04:03.619Z,-7.3
2018-12-08T06:04:53.946Z,-7.3
2018-12-08T06:05:43.706Z,-7.3
2018-12-08T06:06:34.053Z,-7.3
2018-12-08T06:07:24.103Z,-7.2
2018-12-08T06:08:13.884Z,-7.2
2018-12-08T06:09:03.948Z,-7.1
2018-12-08T06:09:54.269Z,-7.1
2018-12-08T06:10:43.777Z,-7.1
2018-12-08T06:11:34.453Z,-7
2018-12-08T06:12:24.166Z,-7
2018-12-08T06:13:14.491Z,-7
2018-12-08T06:14:04.539Z,-6.9
2018-12-08T06:14:54.883Z,-6.9
2018-12-08T06:15:44.668Z,-6.9
2018-12-08T06:16:34.660Z,-6.9
2018-12-08T06:17:24.506Z,-6.8
2018-12-08T06:18:14.840Z,-6.8
2018-12-08T06:19:04.896Z,-6.7
2018-12-08T06:19:54.503Z,-6.6
2018-12-08T06:20:44.733Z,-6.6
2018-12-08T06:21:34.788Z,-6.6
2018-12-08T06:22:25.116Z,-6.6
2018-12-08T06:23:15.175Z,-6.4
2018-12-08T06:24:04.959Z,-6.4
2018-12-08T06:24:55.310Z,-6.3
2018-12-08T06:25:45.347Z,-6.2
2018-12-08T06:26:35.137Z,-6.1
2018-12-08T06:27:25.720Z,-6.1
2018-12-08T06:28:15.247Z,-6
2018-12-08T06:29:05.300Z,-5.9
2018-12-08T06:29:55.637Z,-5.8
2018-12-08T06:30:45.693Z,-5.8
2018-12-08T06:31:35.482Z,-5.6
2018-12-08T06:32:25.776Z,-5.4
2018-12-08T06:33:15.589Z,-5.3
2018-12-08T06:34:05.632Z,-5.2
2018-12-08T06:34:55.949Z,-5
2018-12-08T06:35:46.017Z,-4.8
2018-12-08T06:36:36.179Z,-4.6
2018-12-08T06:37:25.584Z,-4.4
2018-12-08T06:38:15.982Z,-4.1
2018-12-08T06:39:06.269Z,-3.8
2018-12-08T06:39:56.568Z,-3.5
2018-12-08T06:40:46.079Z,-3.2
2018-12-08T06:41:35.871Z,-2.8
2018-12-08T06:42:26.719Z,-2.4
2018-12-08T06:43:16.547Z,-1.9
2018-12-08T06:44:06.604Z,-1.4
2018-12-08T06:44:56.905Z,-1
2018-12-08T06:45:46.709Z,-0.6
2018-12-08T06:46:36.774Z,-0.1
2018-12-08T06:47:26.271Z,0.2
2018-12-08T06:48:16.593Z,0.4
2018-12-08T06:49:06.946Z,0.7
2018-12-08T06:49:57.004Z,0.9
2018-12-08T06:50:46.296Z,1.1
2018-12-08T06:51:37.113Z,1.3
2018-12-08T06:52:26.888Z,1.6
2018-12-08T06:53:16.931Z,1.8
2018-12-08T06:54:07.274Z,2.1
2018-12-08T06:54:57.339Z,2.3
2018-12-08T06:55:46.838Z,2.5
2018-12-08T06:56:37.440Z,2.8
2018-12-08T06:57:27.503Z,2.9
2018-12-08T06:58:17.556Z,3.1
2018-12-08T06:59:07.622Z,3.3
2018-12-08T06:59:57.663Z,3.4
2018-12-08T07:00:47.446Z,3.4
2018-12-08T07:01:37.791Z,3.4
2018-12-08T07:02:27.838Z,3.5
2018-12-08T07:03:17.878Z,3.5
2018-12-08T07:04:07.686Z,3.5
2018-12-08T07:04:57.978Z,3.5
2018-12-08T07:05:48.068Z,3.4
2018-12-08T07:06:38.128Z,3.4
2018-12-08T07:07:28.173Z,3.4
2018-12-08T07:08:18.618Z,3.4
2018-12-08T07:09:08.535Z,3.4
2018-12-08T07:09:58.355Z,3.3
2018-12-08T07:10:48.517Z,3.3
2018-12-08T07:11:38.457Z,3.2
2018-12-08T07:12:30.462Z,3.2
2018-12-08T07:13:18.275Z,3.1
2018-12-08T07:14:08.605Z,3.1
2018-12-08T07:14:58.409Z,3.1
2018-12-08T07:15:48.572Z,3.1
2018-12-08T07:16:38.526Z,3.1
2018-12-08T07:17:28.379Z,3.3
2018-12-08T07:18:18.891Z,3.4
2018-12-08T07:19:08.457Z,3.7
2018-12-08T07:19:58.494Z,4
2018-12-08T07:20:48.772Z,4.3
2018-12-08T07:21:39.157Z,4.6
2018-12-08T07:22:28.932Z,4.9
2018-12-08T07:23:19.542Z,5.3
2018-12-08T07:24:09.045Z,5.6
2018-12-08T07:24:59.081Z,5.9
2018-12-08T07:25:49.149Z,6.3
2018-12-08T07:26:38.932Z,6.8
2018-12-08T07:27:28.717Z,7.4
2018-12-08T07:28:21.857Z,8.2
2018-12-08T07:29:09.369Z,9.2
2018-12-08T07:29:59.421Z,10.2
2018-12-08T07:30:49.754Z,11.3
2018-12-08T07:31:39.819Z,12.7
2018-12-08T07:32:29.601Z,14.1
2018-12-08T07:33:19.654Z,15.8
2018-12-08T07:34:09.441Z,16.8
2018-12-08T07:34:59.776Z,17.9
2018-12-08T07:35:49.827Z,18.8
2018-12-08T07:36:40.156Z,19.3
2018-12-08T07:37:30.239Z,19.8
2018-12-08T07:38:20.516Z,20
2018-12-08T07:39:10.278Z,20.2
2018-12-08T07:40:00.112Z,20.3
2018-12-08T07:40:50.170Z,20.6
2018-12-08T07:41:40.761Z,20.9
2018-12-08T07:42:30.011Z,21.4
2018-12-08T07:43:20.353Z,22.1
2018-12-08T07:44:10.663Z,22.7
2018-12-08T07:45:00.443Z,23.3
2018-12-08T07:45:50.528Z,23.8
2018-12-08T07:46:40.573Z,24.3
2018-12-08T07:47:30.623Z,24.6
2018-12-08T07:48:20.678Z,24.7
2018-12-08T07:49:10.735Z,24.8
2018-12-08T07:50:01.065Z,24.7
2018-12-08T07:50:51.119Z,24.7
2018-12-08T07:51:41.728Z,24.6
2018-12-08T07:52:31.261Z,24.6
2018-12-08T07:53:21.027Z,24.4
2018-12-08T07:54:11.069Z,24.3
2018-12-08T07:55:01.403Z,24.1
2018-12-08T07:55:51.189Z,23.9
2018-12-08T07:56:41.495Z,23.8
2018-12-08T07:57:31.038Z,23.7
2018-12-08T07:58:21.367Z,23.6
2018-12-08T07:59:11.424Z,23.4
2018-12-08T08:00:01.477Z,23.3
2018-12-08T08:00:51.856Z,23.1
2018-12-08T08:01:42.109Z,23
2018-12-08T08:02:32.050Z,22.8
2018-12-08T08:03:21.429Z,22.7
2018-12-08T08:04:11.734Z,22.6
2018-12-08T08:05:01.841Z,22.4
2018-12-08T08:05:52.168Z,22.2
2018-12-08T08:06:42.206Z,22
2018-12-08T08:07:32.263Z,21.9
2018-12-08T08:08:22.321Z,21.8
2018-12-08T08:09:12.429Z,21.7
2018-12-08T08:10:01.747Z,21.5
2018-12-08T08:10:52.486Z,21.4
2018-12-08T08:11:42.271Z,21.2
2018-12-08T08:12:32.336Z,21.1
2018-12-08T08:13:22.391Z,20.9
2018-12-08T08:14:12.761Z,20.8
2018-12-08T08:15:02.893Z,20.5
2018-12-08T08:15:52.273Z,20.3
2018-12-08T08:16:42.899Z,20.1
2018-12-08T08:17:32.943Z,20
2018-12-08T08:18:22.715Z,19.9
2018-12-08T08:19:13.304Z,19.8
2018-12-08T08:20:02.848Z,19.6
2018-12-08T08:20:53.010Z,19.6
2018-12-08T08:21:43.227Z,19.4
2018-12-08T08:22:33.285Z,19.3
2018-12-08T08:23:23.363Z,19.2
2018-12-08T08:24:12.844Z,19
2018-12-08T08:25:03.455Z,18.9
2018-12-08T08:25:53.510Z,18.9
2018-12-08T08:26:43.395Z,18.8
2018-12-08T08:28:23.455Z,18.5
2018-12-08T08:29:13.737Z,18.4
2018-12-08T08:30:03.519Z,18.3
2018-12-08T08:30:53.286Z,18.1
2018-12-08T08:31:45.625Z,18
2018-12-08T08:32:33.689Z,17.9
2018-12-08T08:33:23.999Z,17.8
2018-12-08T08:34:13.526Z,17.7
2018-12-08T08:35:03.577Z,17.6
2018-12-08T08:35:53.919Z,17.5
2018-12-08T08:36:43.699Z,17.3
2018-12-08T08:37:34.031Z,17.3
2018-12-08T08:38:24.327Z,17.1
2018-12-08T08:40:04.584Z,16.9
2018-12-08T08:40:54.256Z,16.7
2018-12-08T08:41:44.311Z,16.6
2018-12-08T08:42:34.082Z,16.6
2018-12-08T08:43:24.429Z,16.5
2018-12-08T08:44:14.751Z,16.4
2018-12-08T08:45:04.541Z,16.4
2018-12-08T08:45:54.861Z,16.3
2018-12-08T08:46:44.689Z,16.3
2018-12-08T08:47:34.431Z,16.2
2018-12-08T08:48:25.028Z,16.1
2018-12-08T08:49:14.813Z,16
2018-12-08T08:50:06.781Z,16
2018-12-08T08:50:55.205Z,15.9
2018-12-08T08:51:44.732Z,15.9
2018-12-08T08:52:35.042Z,15.8
2018-12-08T09:08:22.305Z,17.8
2018-12-08T09:09:12.115Z,18.3
2018-12-08T09:10:01.913Z,18.8
2018-12-08T09:10:52.215Z,19.3
2018-12-08T09:11:42.275Z,19.7
2018-12-08T09:12:31.774Z,20.1
2018-12-08T09:13:22.937Z,20.4
2018-12-08T09:14:15.805Z,20.7
2018-12-08T09:15:01.949Z,21.1
2018-12-08T09:15:52.307Z,21.3
2018-12-08T09:16:42.619Z,21.4
2018-12-08T09:17:32.771Z,21.6
2018-12-08T09:18:22.902Z,21.8
2018-12-08T09:19:12.496Z,21.9
2018-12-08T09:20:02.579Z,21.9
2018-12-08T09:20:52.899Z,22.1
2018-12-08T09:21:42.957Z,22.2
2018-12-08T09:22:33.014Z,22.3
2018-12-08T09:23:22.509Z,22.4
2018-12-08T09:24:12.841Z,22.6
2018-12-08T09:25:02.908Z,22.8
2018-12-08T09:25:53.483Z,22.9
2018-12-08T09:26:43.298Z,23.1
2018-12-08T09:27:33.063Z,23.2
2018-12-08T09:28:23.424Z,23.3
2018-12-08T09:29:13.468Z,23.4
2018-12-08T09:30:03.546Z,23.4
2018-12-08T09:30:53.098Z,23.5
2018-12-08T09:31:43.623Z,23.5
2018-12-08T09:32:33.689Z,23.6
2018-12-08T09:33:23.753Z,23.5
2018-12-08T09:34:13.819Z,23.4
2018-12-08T09:35:03.863Z,23.4
2018-12-08T09:35:53.639Z,23.3
2018-12-08T09:36:43.693Z,23.2
2018-12-08T09:37:33.553Z,23
2018-12-08T09:38:24.085Z,22.9
2018-12-08T09:39:14.118Z,22.8
2018-12-08T09:40:03.933Z,22.6
2018-12-08T09:40:53.986Z,22.4
2018-12-08T09:41:44.308Z,22.3
2018-12-08T09:42:33.901Z,22.2
2018-12-08T09:43:24.158Z,22.1
2018-12-08T09:44:14.212Z,21.9
2018-12-08T09:45:04.545Z,21.8
2018-12-08T09:45:54.601Z,21.7
2018-12-08T09:46:44.380Z,21.5
2018-12-08T09:47:34.732Z,21.4
2018-12-08T09:48:24.765Z,21.3
2018-12-08T09:50:04.884Z,21.1
2018-12-08T09:50:54.945Z,20.9
2018-12-08T09:51:44.745Z,20.8
2018-12-08T09:52:34.782Z,20.7
2018-12-08T09:53:25.110Z,20.6
2018-12-08T09:54:14.890Z,20.4
2018-12-08T09:55:04.970Z,20.3
2018-12-08T09:55:55.356Z,20.2
2018-12-08T09:56:45.333Z,20.1
2018-12-08T09:57:35.400Z,19.9
2018-12-08T09:58:25.062Z,19.8
2018-12-08T09:59:15.517Z,19.6
2018-12-08T10:00:05.297Z,19.4
2018-12-08T10:00:55.702Z,19.3
2018-12-08T10:01:45.678Z,19.1
2018-12-08T10:02:35.742Z,18.9
2018-12-08T10:03:25.509Z,18.8
2018-12-08T10:05:05.520Z,18.4
2018-12-08T10:05:55.971Z,18.3
2018-12-08T10:06:45.745Z,18.2
2018-12-08T10:07:36.084Z,18
2018-12-08T10:08:26.129Z,17.9
2018-12-08T10:09:16.192Z,17.7
2018-12-08T10:10:05.952Z,17.6
2018-12-08T10:10:56.022Z,17.4
2018-12-08T10:11:46.367Z,17.3
2018-12-08T10:12:36.150Z,17.1
2018-12-08T10:14:16.256Z,16.8
2018-12-08T10:15:06.309Z,16.7
2018-12-08T10:15:56.709Z,16.6
2018-12-08T10:16:46.957Z,16.4
2018-12-08T10:17:36.749Z,16.2
2018-12-08T10:18:26.821Z,16
2018-12-08T10:19:16.348Z,15.9
2018-12-08T10:20:06.666Z,15.8
2018-12-08T10:20:56.797Z,15.6
2018-12-08T10:21:46.752Z,15.5
2018-12-08T10:22:37.111Z,15.3
2018-12-08T10:23:26.864Z,15.2
2018-12-08T10:24:17.206Z,15.1
2018-12-08T10:25:06.954Z,14.9
2018-12-08T10:25:57.318Z,14.8
2018-12-08T10:26:47.101Z,14.6
2018-12-08T10:27:37.153Z,14.4
2018-12-08T10:28:27.497Z,14.3
2018-12-08T10:29:17.550Z,14.3
2018-12-08T10:30:07.573Z,14.1
2018-12-08T10:30:56.816Z,13.9
2018-12-08T10:31:47.716Z,13.8
2018-12-08T10:32:37.770Z,13.6
2018-12-08T10:33:29.458Z,13.5
2018-12-08T10:34:17.873Z,13.4
2018-12-08T10:35:07.940Z,13.3
2018-12-08T10:35:57.995Z,13.1
2018-12-08T10:36:47.776Z,13
2018-12-08T10:37:38.110Z,12.9
2018-12-08T10:38:28.153Z,12.8
2018-12-08T10:39:17.946Z,12.6
2018-12-08T10:40:08.270Z,12.5
2018-12-08T10:40:58.340Z,12.4
2018-12-08T10:41:48.408Z,12.3
2018-12-08T10:42:38.455Z,12.2
2018-12-08T10:43:27.945Z,12.1
2018-12-08T10:44:18.002Z,11.9
2018-12-08T10:45:08.332Z,11.9
2018-12-08T10:45:58.667Z,11.8
2018-12-08T10:46:48.540Z,11.6
2018-12-08T10:47:39.084Z,11.5
2018-12-08T10:48:28.295Z,11.4
2018-12-08T10:49:19.207Z,11.4
2018-12-08T10:50:08.955Z,11.2
2018-12-08T10:50:59.004Z,11.1
2018-12-08T10:51:49.077Z,10.9
2018-12-08T10:52:39.125Z,10.9
2018-12-08T10:53:29.169Z,10.8
2018-12-08T10:54:19.484Z,10.8
2018-12-08T10:55:09.022Z,10.6
2018-12-08T10:55:59.321Z,10.6
2018-12-08T10:56:48.862Z,10.5
2018-12-08T10:57:39.474Z,10.4
2018-12-08T10:58:29.524Z,10.3
2018-12-08T10:59:19.823Z,10.3
2018-12-08T11:00:09.369Z,10.1
2018-12-08T11:00:59.927Z,10
2018-12-08T11:01:49.746Z,9.9
2018-12-08T11:02:39.803Z,9.8
2018-12-08T11:03:29.580Z,9.7
2018-12-08T11:04:19.926Z,9.6
2018-12-08T11:05:09.433Z,9.6
2018-12-08T11:06:00.003Z,9.5
2018-12-08T11:06:50.100Z,9.4
2018-12-08T11:07:40.141Z,9.3
2018-12-08T11:08:30.461Z,9.3
2018-12-08T11:09:20.265Z,9.2
2018-12-08T11:10:10.363Z,9.1
2018-12-08T11:11:00.620Z,9.1
2018-12-08T11:11:50.153Z,9.1
2018-12-08T11:12:40.500Z,9
2018-12-08T11:13:29.998Z,8.9
2018-12-08T11:14:20.320Z,8.9
2018-12-08T11:15:10.376Z,8.8
2018-12-08T11:16:00.724Z,8.8
2018-12-08T11:16:50.794Z,8.8
2018-12-08T11:17:40.920Z,8.8
2018-12-08T11:18:30.983Z,8.8
2018-12-08T11:19:20.655Z,8.7
2018-12-08T11:20:10.990Z,8.7
2018-12-08T11:21:01.305Z,8.7
2018-12-08T11:21:50.835Z,8.7
2018-12-08T11:22:40.912Z,8.7
2018-12-08T11:23:30.399Z,8.7
2018-12-08T11:24:20.824Z,8.8
2018-12-08T11:25:10.501Z,8.8
2018-12-08T11:26:01.444Z,8.8
2018-12-08T11:26:51.423Z,8.8
2018-12-08T11:27:41.225Z,8.8
2018-12-08T11:28:31.559Z,8.8
2018-12-08T11:29:21.344Z,8.9
2018-12-08T11:30:11.681Z,8.9
2018-12-08T11:31:01.479Z,8.9
2018-12-08T11:31:51.827Z,8.9
2018-12-08T11:32:41.846Z,8.9
2018-12-08T11:33:31.964Z,8.9
2018-12-08T11:34:21.691Z,8.9
2018-12-08T11:35:11.754Z,8.9
2018-12-08T11:36:01.886Z,8.9
2018-12-08T11:36:52.379Z,8.9
2018-12-08T11:37:42.188Z,8.9
2018-12-08T11:38:31.966Z,8.9
2018-12-08T11:39:22.309Z,8.9
2018-12-08T11:40:12.398Z,8.9
2018-12-08T11:41:02.136Z,8.9
2018-12-08T11:41:52.208Z,8.9
2018-12-08T11:42:42.535Z,8.9
2018-12-08T11:43:32.596Z,8.9
2018-12-08T11:44:22.776Z,8.9
2018-12-08T11:45:12.701Z,8.9
2018-12-08T11:46:02.491Z,8.9
2018-12-08T11:46:52.828Z,8.9
2018-12-08T11:47:42.593Z,8.9
2018-12-08T11:48:32.653Z,8.9
2018-12-08T11:49:23.026Z,8.9
2018-12-08T11:50:13.048Z,8.8
2018-12-08T11:51:03.102Z,8.8
2018-12-08T11:51:52.622Z,8.8
2018-12-08T11:52:42.915Z,8.8
2018-12-08T11:53:33.018Z,8.9
2018-12-08T11:54:23.063Z,8.9
2018-12-08T11:55:13.381Z,8.9
2018-12-08T11:56:03.453Z,8.9
2018-12-08T11:56:53.508Z,8.8
2018-12-08T11:57:43.552Z,8.8
2018-12-08T11:58:33.330Z,8.8
2018-12-08T11:59:23.692Z,8.8
2018-12-08T12:00:13.179Z,8.8
2018-12-08T12:01:03.784Z,8.8
2018-12-08T12:01:53.842Z,8.8
2018-12-08T12:02:43.894Z,8.8
2018-12-08T12:03:33.962Z,8.8
2018-12-08T12:04:24.004Z,8.8
2018-12-08T12:05:13.514Z,8.8